Time;durP1;ratioP1;P1;durP2;ratioP2;P2;SDS_P1;SDS_P2;PMS_P1;PMS_P2;Temp;Humidity;BMP_temperature;BMP_pressure;BME280_temperature;BME280_humidity;BME280_pressure;Samples;Min_cycle;Max_cycle;Signal;HPM_P1;HPM_P2
2022/01/11 00:01:22;;;;;;;20.42;9.95;;;2.00;99.90;;;;;;5035078;28;20194;-88
2022/01/11 00:03:48;;;;;;;18.67;10.70;;;2.00;99.90;;;;;;5040860;28;20179;-88
2022/01/11 00:06:34;;;;;;;25.60;13.02;;;2.00;99.90;;;;;;5018052;28;20703;-87
2022/01/11 00:09:06;;;;;;;19.73;11.20;;;2.00;99.90;;;;;;5018147;28;20182;-88
2022/01/11 00:11:32;;;;;;;20.83;11.88;;;2.00;99.90;;;;;;5017730;28;20280;-88
2022/01/11 00:13:57;;;;;;;20.13;11.00;;;2.00;99.90;;;;;;5023240;28;20580;-88
2022/01/11 00:16:23;;;;;;;20.50;10.97;;;2.00;99.90;;;;;;5017123;28;20284;-87
2022/01/11 00:18:49;;;;;;;18.57;10.33;;;2.00;99.90;;;;;;5016300;28;20712;-86
2022/01/11 00:21:15;;;;;;;18.92;10.55;;;2.00;99.90;;;;;;5016197;28;20222;-87
2022/01/11 00:26:06;;;;;;;17.00;11.13;;;2.00;99.90;;;;;;5033854;28;20220;-87
2022/01/11 00:28:32;;;;;;;21.77;10.33;;;2.00;99.90;;;;;;5016322;28;20178;-88
2022/01/11 00:30:57;;;;;;;15.97;9.20;;;2.00;99.90;;;;;;5016145;28;20626;-86
2022/01/11 00:33:47;;;;;;;19.03;11.00;;;1.90;99.90;;;;;;5016250;28;20541;-87
2022/01/11 00:36:11;;;;;;;19.40;10.57;;;1.90;99.90;;;;;;5035702;28;20406;-88
2022/01/11 00:38:39;;;;;;;21.00;12.20;;;1.90;99.90;;;;;;5020026;28;20210;-87
2022/01/11 00:41:11;;;;;;;17.25;9.70;;;1.90;99.90;;;;;;5016294;28;20244;-88
2022/01/11 00:43:39;;;;;;;23.42;9.95;;;1.90;99.90;;;;;;5017120;28;20182;-87
2022/01/11 00:46:06;;;;;;;15.57;8.65;;;1.90;99.90;;;;;;5016209;28;20207;-87
2022/01/11 00:48:32;;;;;;;19.05;9.85;;;1.90;99.90;;;;;;5018775;28;20198;-88
2022/01/11 00:51:00;;;;;;;14.43;8.60;;;1.90;99.90;;;;;;5025950;28;20204;-88
2022/01/11 00:53:25;;;;;;;17.23;10.20;;;1.80;99.90;;;;;;5033987;28;20182;-87
2022/01/11 00:55:51;;;;;;;16.07;8.33;;;1.90;99.90;;;;;;5033757;28;20296;-87
2022/01/11 00:58:18;;;;;;;17.27;10.30;;;1.80;99.90;;;;;;5033940;28;20174;-87
2022/01/11 01:00:44;;;;;;;15.27;10.02;;;1.80;99.90;;;;;;5016083;28;20207;-86
2022/01/11 01:03:10;;;;;;;14.35;8.55;;;1.80;99.90;;;;;;5016090;28;20636;-88
2022/01/11 01:05:36;;;;;;;19.23;11.33;;;1.80;99.90;;;;;;5015741;28;20210;-86
2022/01/11 01:08:02;;;;;;;18.20;10.10;;;1.80;99.90;;;;;;5015880;28;20479;-88
2022/01/11 01:10:40;;;;;;;19.67;11.67;;;1.80;99.90;;;;;;5016214;28;20690;-87
2022/01/11 01:13:13;;;;;;;17.60;10.50;;;1.80;99.90;;;;;;5033861;28;20406;-87
2022/01/11 01:15:40;;;;;;;20.42;11.77;;;1.80;99.90;;;;;;5015838;28;20209;-86
2022/01/11 01:18:10;;;;;;;16.63;10.73;;;1.80;99.90;;;;;;5015847;28;20663;-86
2022/01/11 01:20:36;;;;;;;16.83;9.55;;;1.70;99.90;;;;;;5019091;28;20237;-87
2022/01/11 01:23:02;;;;;;;18.07;11.00;;;1.70;99.90;;;;;;5037133;28;20174;-88
2022/01/11 01:25:28;;;;;;;18.73;10.65;;;1.70;99.90;;;;;;5036864;28;20204;-87
2022/01/11 01:27:54;;;;;;;18.70;9.03;;;1.70;99.90;;;;;;5019447;28;20183;-87
2022/01/11 01:30:21;;;;;;;16.30;8.88;;;1.80;99.90;;;;;;5036814;28;20236;-86
2022/01/11 01:32:48;;;;;;;17.23;10.93;;;1.80;99.90;;;;;;5019290;28;20185;-88
2022/01/11 01:35:14;;;;;;;20.90;10.30;;;1.80;99.90;;;;;;5036707;28;20190;-87
2022/01/11 01:37:40;;;;;;;17.05;9.35;;;1.80;99.90;;;;;;5019125;28;20190;-87
2022/01/11 01:40:08;;;;;;;17.93;8.47;;;1.70;99.90;;;;;;5018859;28;20295;-87
2022/01/11 01:42:35;;;;;;;17.52;10.55;;;1.80;99.90;;;;;;5019138;28;20191;-86
2022/01/11 01:45:03;;;;;;;17.80;10.20;;;1.70;99.90;;;;;;5019110;28;20190;-88
2022/01/11 01:47:29;;;;;;;15.57;9.43;;;1.70;99.90;;;;;;5019915;28;20183;-88
2022/01/11 01:49:55;;;;;;;20.10;10.37;;;1.70;99.90;;;;;;5045044;28;20320;-88
2022/01/11 01:52:22;;;;;;;20.23;11.60;;;1.70;99.90;;;;;;5020123;28;20399;-86
2022/01/11 01:54:48;;;;;;;18.10;9.85;;;1.70;99.90;;;;;;5034268;28;20185;-88
2022/01/11 01:57:14;;;;;;;22.23;11.02;;;1.80;99.90;;;;;;5037334;28;20170;-87
2022/01/11 01:59:40;;;;;;;15.67;10.10;;;1.70;99.90;;;;;;5033171;28;20241;-87
2022/01/11 02:02:08;;;;;;;16.50;9.90;;;1.70;99.90;;;;;;5022220;28;20561;-87
2022/01/11 02:04:34;;;;;;;17.40;9.75;;;1.70;99.90;;;;;;5036587;28;20170;-88
2022/01/11 02:07:00;;;;;;;17.20;10.17;;;1.70;99.90;;;;;;5046276;28;20277;-87
2022/01/11 02:09:26;;;;;;;16.40;8.73;;;1.70;99.90;;;;;;5036453;28;20195;-87
2022/01/11 02:11:51;;;;;;;22.05;10.73;;;1.60;99.90;;;;;;5034829;28;20190;-88
2022/01/11 02:14:17;;;;;;;15.53;8.27;;;1.70;99.90;;;;;;5018768;28;20181;-87
2022/01/11 02:16:43;;;;;;;19.17;10.20;;;1.70;99.90;;;;;;5025031;28;20210;-87
2022/01/11 02:19:09;;;;;;;16.60;10.00;;;1.70;99.90;;;;;;5018803;28;20214;-87
2022/01/11 02:21:34;;;;;;;16.10;8.60;;;1.70;99.90;;;;;;5018189;28;20841;-87
2022/01/11 02:24:00;;;;;;;16.63;9.63;;;1.70;99.90;;;;;;5036074;28;20229;-88
2022/01/11 02:26:26;;;;;;;15.60;10.48;;;1.70;99.90;;;;;;5017803;28;20201;-88
2022/01/11 02:28:53;;;;;;;15.40;9.40;;;1.70;99.90;;;;;;5018123;28;20632;-87
2022/01/11 02:31:19;;;;;;;16.35;10.27;;;1.70;99.90;;;;;;5017448;28;20785;-87
2022/01/11 02:33:48;;;;;;;17.13;9.82;;;1.60;99.90;;;;;;5017997;28;20182;-88
2022/01/11 02:36:23;;;;;;;17.38;10.07;;;1.60;99.90;;;;;;5018071;28;20194;-88
2022/01/11 02:38:51;;;;;;;15.52;9.40;;;1.60;99.90;;;;;;5035481;28;20210;-87
2022/01/11 02:41:17;;;;;;;13.93;8.45;;;1.60;99.90;;;;;;5035655;28;20190;-87
2022/01/11 02:43:47;;;;;;;22.55;11.05;;;1.60;99.90;;;;;;5035792;28;20182;-87
2022/01/11 02:46:16;;;;;;;17.27;9.90;;;1.60;99.90;;;;;;5017703;28;20248;-85
2022/01/11 02:48:42;;;;;;;21.10;10.57;;;1.60;99.90;;;;;;5017445;28;20183;-87
2022/01/11 02:51:08;;;;;;;16.63;9.40;;;1.50;99.90;;;;;;5017889;28;20756;-87
2022/01/11 02:53:49;;;;;;;21.23;9.85;;;1.60;99.90;;;;;;5017648;28;20438;-87
2022/01/11 02:56:16;;;;;;;17.55;8.80;;;1.50;99.90;;;;;;5017334;28;20339;-87
2022/01/11 02:58:42;;;;;;;17.02;7.75;;;1.50;99.90;;;;;;5017682;28;20245;-87
2022/01/11 03:01:09;;;;;;;18.37;9.63;;;1.60;99.90;;;;;;5017561;28;20198;-88
2022/01/11 03:03:35;;;;;;;17.45;10.93;;;1.60;99.90;;;;;;5035426;28;20417;-87
2022/01/11 03:06:03;;;;;;;16.02;9.25;;;1.60;99.90;;;;;;5017070;28;20285;-87
2022/01/11 03:08:31;;;;;;;22.00;8.85;;;1.50;99.90;;;;;;5034216;28;20214;-87
2022/01/11 03:10:57;;;;;;;16.48;10.50;;;1.50;99.90;;;;;;5035788;28;20686;-87
2022/01/11 03:13:24;;;;;;;18.45;9.60;;;1.50;99.90;;;;;;5030028;28;20178;-88
2022/01/11 03:15:50;;;;;;;22.33;11.07;;;1.50;99.90;;;;;;5047264;28;20286;-87
2022/01/11 03:18:16;;;;;;;20.10;11.85;;;1.50;99.90;;;;;;5017366;28;20222;-87
2022/01/11 03:20:45;;;;;;;19.63;10.93;;;1.50;99.90;;;;;;5017093;28;20229;-87
2022/01/11 03:23:12;;;;;;;15.60;10.05;;;1.50;99.90;;;;;;5017150;28;20903;-87
2022/01/11 03:25:38;;;;;;;19.73;10.20;;;1.50;99.90;;;;;;5016925;28;20282;-86
2022/01/11 03:28:04;;;;;;;19.50;10.10;;;1.50;99.90;;;;;;5017050;28;20240;-87
2022/01/11 03:30:30;;;;;;;15.02;9.52;;;1.50;99.90;;;;;;5016974;28;20431;-87
2022/01/11 03:32:56;;;;;;;18.20;10.18;;;1.50;99.90;;;;;;5034494;28;20190;-87
2022/01/11 03:35:23;;;;;;;16.27;9.37;;;1.50;99.90;;;;;;5016884;28;20674;-88
2022/01/11 03:37:50;;;;;;;19.42;11.10;;;1.50;99.90;;;;;;5017086;28;20440;-88
2022/01/11 03:40:18;;;;;;;17.95;9.32;;;1.50;99.90;;;;;;5016702;28;20303;-87
2022/01/11 03:42:45;;;;;;;21.85;10.75;;;1.50;99.90;;;;;;5016426;28;20189;-87
2022/01/11 03:45:13;;;;;;;18.75;10.18;;;1.50;99.90;;;;;;5016546;28;20676;-87
2022/01/11 03:47:39;;;;;;;19.58;10.55;;;1.50;99.90;;;;;;5034698;28;20174;-87
2022/01/11 03:50:08;;;;;;;13.18;8.60;;;1.40;99.90;;;;;;5034450;28;20194;-87
2022/01/11 03:52:34;;;;;;;19.88;11.02;;;1.40;99.90;;;;;;5034397;28;20636;-88
2022/01/11 03:57:31;;;;;;;19.47;11.93;;;1.40;99.90;;;;;;5034444;28;20232;-87
2022/01/11 03:59:58;;;;;;;17.90;9.18;;;1.40;99.90;;;;;;5016572;28;20502;-87
2022/01/11 04:02:24;;;;;;;17.55;9.27;;;1.40;99.90;;;;;;5016820;28;20192;-87
2022/01/11 04:04:53;;;;;;;20.65;10.68;;;1.50;99.90;;;;;;5016282;28;20205;-87
2022/01/11 04:07:25;;;;;;;17.38;9.65;;;1.50;99.90;;;;;;5016440;28;20657;-87
2022/01/11 04:09:53;;;;;;;16.75;10.35;;;1.40;99.90;;;;;;5016794;28;20197;-87
2022/01/11 04:12:19;;;;;;;22.08;11.18;;;1.40;99.90;;;;;;5016439;28;20190;-85
2022/01/11 04:14:45;;;;;;;14.98;7.05;;;1.40;99.90;;;;;;5016317;28;20568;-86
2022/01/11 04:17:11;;;;;;;16.63;9.70;;;1.40;99.90;;;;;;5016337;28;20182;-87
2022/01/11 04:19:37;;;;;;;14.55;8.13;;;1.40;99.90;;;;;;5032333;28;20233;-88
2022/01/11 04:22:03;;;;;;;15.83;9.50;;;1.40;99.90;;;;;;5034370;28;20185;-86
2022/01/11 04:24:29;;;;;;;15.70;10.02;;;1.40;99.90;;;;;;5016142;28;20503;-88
2022/01/11 04:26:56;;;;;;;15.50;9.20;;;1.40;99.90;;;;;;5016201;28;20273;-86
2022/01/11 04:29:22;;;;;;;16.40;9.13;;;1.40;99.90;;;;;;5016406;28;20995;-86
2022/01/11 04:31:48;;;;;;;15.88;8.95;;;1.40;99.90;;;;;;5016462;28;20236;-88
2022/01/11 04:34:14;;;;;;;18.13;9.43;;;1.40;99.90;;;;;;5016209;28;20567;-86
2022/01/11 04:36:40;;;;;;;12.80;7.22;;;1.40;99.90;;;;;;5034209;28;20428;-87
2022/01/11 04:39:10;;;;;;;14.83;8.93;;;1.50;99.90;;;;;;5026073;28;20207;-86
2022/01/11 04:41:36;;;;;;;18.02;9.57;;;1.50;99.90;;;;;;5036500;28;20440;-87
2022/01/11 04:44:02;;;;;;;15.13;9.85;;;1.40;99.90;;;;;;5042507;28;20175;-86
2022/01/11 04:46:28;;;;;;;16.33;10.13;;;1.40;99.90;;;;;;5037095;28;20190;-88
2022/01/11 04:48:54;;;;;;;18.80;9.83;;;1.40;99.90;;;;;;5016685;28;20608;-86
2022/01/11 04:51:21;;;;;;;18.23;10.27;;;1.40;99.90;;;;;;5015932;28;20190;-86
2022/01/11 04:53:47;;;;;;;17.75;9.25;;;1.40;99.90;;;;;;5017015;28;20185;-88
2022/01/11 04:56:13;;;;;;;17.13;8.35;;;1.40;99.90;;;;;;5037420;28;20539;-88
2022/01/11 04:58:39;;;;;;;17.00;9.23;;;1.40;99.90;;;;;;5019903;28;20229;-88
2022/01/11 05:01:05;;;;;;;17.80;9.07;;;1.40;99.90;;;;;;5019718;28;20221;-87
2022/01/11 05:03:31;;;;;;;17.00;8.20;;;1.40;99.90;;;;;;5019804;28;20179;-87
2022/01/11 05:05:57;;;;;;;15.43;8.77;;;1.40;99.90;;;;;;5019248;28;20433;-88
2022/01/11 05:08:23;;;;;;;15.10;9.10;;;1.40;99.90;;;;;;5037793;28;20936;-86
2022/01/11 05:10:48;;;;;;;16.43;9.10;;;1.40;99.90;;;;;;5019484;28;20964;-88
2022/01/11 05:13:16;;;;;;;13.60;8.13;;;1.40;99.90;;;;;;5037505;28;20425;-86
2022/01/11 05:15:43;;;;;;;15.15;7.55;;;1.40;99.90;;;;;;5037184;28;20667;-86
2022/01/11 05:18:09;;;;;;;13.65;8.15;;;1.40;99.90;;;;;;5019786;28;20648;-88
2022/01/11 05:20:36;;;;;;;17.42;6.97;;;1.40;99.90;;;;;;5019822;28;20229;-86
2022/01/11 05:23:02;;;;;;;15.20;9.27;;;1.30;99.90;;;;;;5019412;28;20207;-85
2022/01/11 05:25:28;;;;;;;12.75;8.68;;;1.40;99.90;;;;;;5011046;28;20261;-86
2022/01/11 05:27:54;;;;;;;12.85;8.23;;;1.30;99.90;;;;;;5018085;28;20506;-88
2022/01/11 05:30:21;;;;;;;13.83;7.67;;;1.30;99.90;;;;;;4999562;28;20206;-86
2022/01/11 05:32:48;;;;;;;13.32;8.65;;;1.30;99.90;;;;;;5020190;28;20190;-86
2022/01/11 05:35:15;;;;;;;15.30;6.68;;;1.30;99.90;;;;;;5020389;28;20187;-86
2022/01/11 05:37:41;;;;;;;14.05;8.65;;;1.30;99.90;;;;;;5005857;28;20706;-88
2022/01/11 05:40:09;;;;;;;13.77;8.63;;;1.30;99.90;;;;;;5031458;28;20313;-86
2022/01/11 05:42:36;;;;;;;14.82;8.13;;;1.30;99.90;;;;;;4999223;28;20507;-88
2022/01/11 05:45:04;;;;;;;10.15;6.90;;;1.30;99.90;;;;;;5016916;28;20195;-88
2022/01/11 05:47:30;;;;;;;14.00;8.25;;;1.30;99.90;;;;;;5012250;28;20195;-88
2022/01/11 05:49:55;;;;;;;15.27;8.83;;;1.30;99.90;;;;;;4999987;28;20606;-87
2022/01/11 05:52:21;;;;;;;15.10;7.83;;;1.30;99.90;;;;;;5001331;28;20636;-88
2022/01/11 05:54:47;;;;;;;12.57;8.30;;;1.30;99.90;;;;;;5006469;28;20668;-88
2022/01/11 05:57:12;;;;;;;14.47;9.20;;;1.30;99.90;;;;;;5041025;28;20182;-88
2022/01/11 05:59:38;;;;;;;14.70;8.00;;;1.40;99.90;;;;;;5026874;28;20210;-86
2022/01/11 06:02:04;;;;;;;12.93;8.30;;;1.40;99.90;;;;;;5037819;28;20197;-87
2022/01/11 06:04:30;;;;;;;14.77;8.73;;;1.30;99.90;;;;;;5022300;28;20182;-88
2022/01/11 06:06:56;;;;;;;15.43;9.00;;;1.30;99.90;;;;;;5031987;28;20230;-88
2022/01/11 06:09:26;;;;;;;16.20;7.80;;;1.40;99.90;;;;;;5017194;28;20177;-88
2022/01/11 06:11:52;;;;;;;12.68;7.78;;;1.30;99.90;;;;;;5034553;28;20266;-88
2022/01/11 06:14:18;;;;;;;22.67;11.00;;;1.30;99.90;;;;;;5035194;28;20175;-86
2022/01/11 06:16:44;;;;;;;18.13;10.30;;;1.30;99.90;;;;;;5018241;28;20209;-86
2022/01/11 06:19:09;;;;;;;16.73;9.90;;;1.30;99.90;;;;;;5030575;28;20693;-87
2022/01/11 06:21:35;;;;;;;19.37;9.20;;;1.30;99.90;;;;;;5002857;28;20574;-87
2022/01/11 06:24:01;;;;;;;13.37;8.90;;;1.40;99.90;;;;;;5010826;28;20183;-84
2022/01/11 06:26:26;;;;;;;21.95;11.30;;;1.30;99.90;;;;;;4996888;28;20726;-87
2022/01/11 06:28:52;;;;;;;15.13;8.83;;;1.30;99.90;;;;;;4996598;28;20270;-87
2022/01/11 06:31:18;;;;;;;54.00;24.90;;;1.30;99.90;;;;;;5013784;28;20656;-88
2022/01/11 06:33:43;;;;;;;23.37;12.53;;;1.30;99.90;;;;;;5021839;28;20181;-87
2022/01/11 06:36:12;;;;;;;22.27;12.80;;;1.30;99.90;;;;;;5016633;28;20526;-87
2022/01/11 06:38:40;;;;;;;19.10;11.65;;;1.30;99.90;;;;;;5017427;28;20179;-88
2022/01/11 06:41:05;;;;;;;17.95;12.55;;;1.30;99.90;;;;;;5017505;28;20213;-88
2022/01/11 06:43:31;;;;;;;22.77;12.20;;;1.20;99.90;;;;;;5033967;28;20620;-88
2022/01/11 06:45:58;;;;;;;22.37;13.07;;;1.20;99.90;;;;;;5000233;28;20225;-88
2022/01/11 06:48:24;;;;;;;17.00;11.02;;;1.20;99.90;;;;;;5014518;28;20659;-88
2022/01/11 06:50:49;;;;;;;21.83;12.30;;;1.20;99.90;;;;;;5021242;28;20204;-86
2022/01/11 06:53:15;;;;;;;18.90;10.63;;;1.20;99.90;;;;;;5033096;28;20217;-87
2022/01/11 06:55:41;;;;;;;17.17;9.83;;;1.20;99.90;;;;;;5020345;28;20414;-86
2022/01/11 06:58:07;;;;;;;16.20;9.73;;;1.30;99.90;;;;;;5007723;28;20287;-88
2022/01/11 07:00:33;;;;;;;16.88;10.60;;;1.30;99.90;;;;;;4999749;28;20219;-88
2022/01/11 07:02:59;;;;;;;21.37;11.47;;;1.30;99.90;;;;;;5020072;28;20176;-86
2022/01/11 07:05:24;;;;;;;18.50;9.87;;;1.30;99.90;;;;;;4996786;28;20428;-86
2022/01/11 07:07:50;;;;;;;17.57;8.53;;;1.30;99.90;;;;;;4997033;28;20250;-87
2022/01/11 07:10:20;;;;;;;15.17;9.47;;;1.30;99.90;;;;;;5034075;28;20328;-86
2022/01/11 07:12:46;;;;;;;18.63;10.93;;;1.30;99.90;;;;;;5013592;28;20203;-89
2022/01/11 07:15:11;;;;;;;15.20;7.10;;;1.30;99.90;;;;;;5007057;28;20293;-86
2022/01/11 07:17:37;;;;;;;19.60;9.53;;;1.30;99.90;;;;;;5029595;28;20639;-89
2022/01/11 07:20:04;;;;;;;18.77;9.93;;;1.30;99.90;;;;;;5033937;28;20471;-87
2022/01/11 07:22:30;;;;;;;15.23;7.20;;;1.30;99.90;;;;;;5031312;28;20474;-87
2022/01/11 07:24:56;;;;;;;17.73;9.80;;;1.30;99.90;;;;;;5017055;28;20575;-89
2022/01/11 07:27:22;;;;;;;18.70;9.70;;;1.40;99.90;;;;;;5031154;28;20486;-86
2022/01/11 07:29:48;;;;;;;17.52;11.85;;;1.40;99.90;;;;;;5017662;28;20203;-88
2022/01/11 07:32:14;;;;;;;17.95;10.30;;;1.40;99.90;;;;;;5017460;28;20194;-86
2022/01/11 07:34:40;;;;;;;13.50;8.60;;;1.40;99.90;;;;;;5004941;28;20675;-86
2022/01/11 07:37:06;;;;;;;17.55;10.13;;;1.40;99.90;;;;;;5011907;28;20191;-88
2022/01/11 07:39:32;;;;;;;16.63;10.20;;;1.40;99.90;;;;;;5025594;28;20331;-86
2022/01/11 07:41:58;;;;;;;19.02;11.40;;;1.40;99.90;;;;;;5050189;28;20435;-86
2022/01/11 07:44:24;;;;;;;18.55;9.77;;;1.40;99.90;;;;;;5030686;28;20253;-88
2022/01/11 07:46:52;;;;;;;18.25;9.90;;;1.40;99.90;;;;;;5007095;28;20186;-85
2022/01/11 07:49:18;;;;;;;19.50;10.63;;;1.40;99.90;;;;;;5033199;28;20182;-88
2022/01/11 07:51:44;;;;;;;13.95;7.60;;;1.40;99.90;;;;;;5036556;28;20557;-88
2022/01/11 07:54:10;;;;;;;17.23;10.13;;;1.50;99.90;;;;;;5049421;28;20196;-88
2022/01/11 07:56:36;;;;;;;19.70;11.33;;;1.50;99.90;;;;;;5036215;28;20488;-86
2022/01/11 07:59:01;;;;;;;19.17;10.77;;;1.50;99.90;;;;;;5022550;28;20454;-88
2022/01/11 08:01:27;;;;;;;17.10;10.70;;;1.50;99.90;;;;;;5028770;28;20229;-87
2022/01/11 08:03:53;;;;;;;16.67;9.60;;;1.50;99.90;;;;;;5044941;28;20200;-88
2022/01/11 08:06:19;;;;;;;19.67;11.33;;;1.50;99.90;;;;;;5038507;28;20524;-87
2022/01/11 08:08:44;;;;;;;19.60;9.87;;;1.60;99.90;;;;;;5026693;28;20412;-86
2022/01/11 08:11:11;;;;;;;21.20;11.13;;;1.60;99.90;;;;;;5028349;28;20457;-87
2022/01/11 08:13:37;;;;;;;17.35;10.48;;;1.60;99.90;;;;;;5032474;28;20210;-86
2022/01/11 08:16:03;;;;;;;16.17;9.77;;;1.60;99.90;;;;;;5029722;28;20207;-88
2022/01/11 08:18:29;;;;;;;19.60;11.63;;;1.60;99.90;;;;;;5024608;28;20197;-86
2022/01/11 08:20:55;;;;;;;16.47;10.07;;;1.60;99.90;;;;;;5032077;28;20206;-88
2022/01/11 08:23:20;;;;;;;16.40;10.30;;;1.60;99.90;;;;;;5030539;28;20407;-88
2022/01/11 08:25:46;;;;;;;18.97;10.73;;;1.70;99.90;;;;;;5032975;28;20218;-88
2022/01/11 08:28:13;;;;;;;18.50;9.93;;;1.70;99.90;;;;;;5013681;28;20547;-86
2022/01/11 08:30:39;;;;;;;13.45;9.23;;;1.70;99.90;;;;;;5016421;28;20222;-86
2022/01/11 08:33:06;;;;;;;16.50;9.15;;;1.70;99.90;;;;;;5032884;28;20185;-86
2022/01/11 08:35:33;;;;;;;14.75;9.88;;;1.70;99.90;;;;;;5015646;28;20677;-88
2022/01/11 08:37:59;;;;;;;22.55;11.90;;;1.70;99.90;;;;;;5007398;28;20236;-86
2022/01/11 08:40:25;;;;;;;15.40;9.93;;;1.70;99.90;;;;;;5032752;28;20299;-87
2022/01/11 08:42:52;;;;;;;19.98;11.52;;;1.70;99.90;;;;;;5014399;28;20193;-88
2022/01/11 08:45:17;;;;;;;22.35;11.80;;;1.80;99.90;;;;;;5032802;28;20576;-86
2022/01/11 08:47:43;;;;;;;22.10;13.50;;;1.80;99.90;;;;;;5011186;28;20179;-86
2022/01/11 08:50:12;;;;;;;18.73;11.20;;;1.80;99.90;;;;;;5038074;28;20992;-88
2022/01/11 08:52:40;;;;;;;14.38;8.82;;;1.80;99.90;;;;;;5033288;28;20225;-86
2022/01/11 08:55:07;;;;;;;22.98;12.07;;;1.90;99.90;;;;;;5030627;28;20206;-88
2022/01/11 08:57:33;;;;;;;14.43;8.60;;;1.90;99.90;;;;;;5014283;28;20176;-85
2022/01/11 08:59:59;;;;;;;15.43;10.13;;;1.90;99.90;;;;;;5019032;28;20241;-88
2022/01/11 09:02:24;;;;;;;19.87;10.30;;;1.90;99.90;;;;;;5033567;28;20191;-88
2022/01/11 09:04:53;;;;;;;28.57;13.00;;;2.00;99.90;;;;;;5011436;28;20719;-88
2022/01/11 09:07:19;;;;;;;25.48;13.82;;;2.00;99.90;;;;;;5031573;28;20252;-86
2022/01/11 09:09:45;;;;;;;23.17;10.97;;;2.00;99.90;;;;;;5024719;28;20683;-87
2022/01/11 09:12:13;;;;;;;16.40;9.60;;;2.00;99.90;;;;;;5038148;28;20453;-86
2022/01/11 09:14:39;;;;;;;17.60;9.63;;;2.10;99.90;;;;;;5034833;28;20402;-86
2022/01/11 09:17:06;;;;;;;14.82;7.53;;;2.10;99.90;;;;;;5033985;28;20190;-89
2022/01/11 09:19:32;;;;;;;15.35;9.40;;;2.10;99.90;;;;;;5034907;28;20226;-89
2022/01/11 09:21:58;;;;;;;13.35;8.82;;;2.20;99.90;;;;;;5029625;28;20176;-89
2022/01/11 09:24:29;;;;;;;17.52;9.82;;;2.20;99.90;;;;;;5003446;28;20262;-88
2022/01/11 09:26:59;;;;;;;14.93;6.88;;;2.20;99.90;;;;;;5027263;28;20736;-86
2022/01/11 09:29:26;;;;;;;9.05;5.65;;;2.20;99.90;;;;;;5013565;28;20179;-88
2022/01/11 09:31:56;;;;;;;15.57;9.27;;;2.20;99.90;;;;;;5001263;28;20682;-86
2022/01/11 09:34:22;;;;;;;13.52;7.90;;;2.20;99.90;;;;;;5015508;28;20190;-89
2022/01/11 09:36:49;;;;;;;11.02;6.22;;;2.20;99.90;;;;;;5009783;28;20193;-89
2022/01/11 09:39:14;;;;;;;17.38;10.23;;;2.20;99.90;;;;;;5006117;28;20222;-86
2022/01/11 09:41:41;;;;;;;14.60;8.57;;;2.20;99.90;;;;;;5010313;28;20206;-86
2022/01/11 09:44:07;;;;;;;13.95;8.55;;;2.20;99.90;;;;;;5022121;28;20466;-86
2022/01/11 09:46:33;;;;;;;14.32;8.82;;;2.20;99.90;;;;;;5028712;28;20240;-89
2022/01/11 09:49:00;;;;;;;15.43;8.82;;;2.20;99.90;;;;;;5016787;28;20213;-86
2022/01/11 09:51:26;;;;;;;16.25;8.82;;;2.10;99.90;;;;;;5009875;28;20683;-88
2022/01/11 09:53:53;;;;;;;14.30;9.63;;;2.20;99.90;;;;;;5013743;28;20201;-86
2022/01/11 09:56:19;;;;;;;15.00;8.55;;;2.20;99.90;;;;;;5025328;28;20210;-89
2022/01/11 09:58:45;;;;;;;14.97;9.50;;;2.10;99.90;;;;;;5031947;28;20648;-86
2022/01/11 10:01:11;;;;;;;13.43;9.30;;;2.20;99.90;;;;;;5009929;28;20547;-86
2022/01/11 10:04:06;;;;;;;15.53;8.60;;;2.20;99.90;;;;;;5032696;28;20265;-86
2022/01/11 10:06:35;;;;;;;12.25;7.60;;;2.20;99.90;;;;;;5007500;28;20476;-88
2022/01/11 10:09:18;;;;;;;12.52;7.55;;;2.20;99.90;;;;;;5029645;28;20191;-89
2022/01/11 10:11:45;;;;;;;16.13;10.30;;;2.20;99.90;;;;;;5029985;28;20198;-89
2022/01/11 10:14:26;;;;;;;15.13;8.65;;;2.20;99.90;;;;;;5018350;28;20186;-89
2022/01/11 10:17:06;;;;;;;11.60;7.40;;;2.20;99.90;;;;;;5011302;28;20175;-86
2022/01/11 10:19:33;;;;;;;16.55;7.90;;;2.20;99.90;;;;;;5017511;28;20687;-86
2022/01/11 10:22:03;;;;;;;14.82;9.85;;;2.20;99.90;;;;;;5012868;28;20245;-87
2022/01/11 10:24:35;;;;;;;13.27;8.88;;;2.20;99.90;;;;;;5013675;28;20179;-86
2022/01/11 10:27:30;;;;;;;17.25;8.48;;;2.20;99.90;;;;;;5026014;28;20640;-88
2022/01/11 10:29:59;;;;;;;13.73;9.35;;;2.20;99.90;;;;;;5032577;28;20222;-86
2022/01/11 10:32:37;;;;;;;15.80;8.43;;;2.20;99.90;;;;;;5012917;28;20177;-87
2022/01/11 10:35:10;;;;;;;15.43;9.13;;;2.20;99.90;;;;;;5011654;28;20695;-86
2022/01/11 10:37:45;;;;;;;19.05;9.43;;;2.20;99.90;;;;;;5020988;28;20175;-86
2022/01/11 10:40:18;;;;;;;20.65;10.35;;;2.20;99.90;;;;;;5014334;28;20225;-87
2022/01/11 10:42:50;;;;;;;22.38;12.52;;;2.20;99.90;;;;;;5008162;28;20200;-88
2022/01/11 10:45:34;;;;;;;17.58;10.52;;;2.20;99.90;;;;;;5014673;28;20609;-88
2022/01/11 10:48:22;;;;;;;18.88;11.07;;;2.20;99.90;;;;;;5012043;28;20268;-87
2022/01/11 10:50:59;;;;;;;17.30;8.70;;;2.20;99.90;;;;;;5015990;28;20202;-87
2022/01/11 10:53:28;;;;;;;16.55;7.90;;;2.20;99.90;;;;;;5043567;28;20190;-88
2022/01/11 10:55:59;;;;;;;13.82;7.60;;;2.20;99.90;;;;;;5013310;28;20730;-88
2022/01/11 10:58:28;;;;;;;15.07;8.55;;;2.20;99.90;;;;;;5012103;28;20228;-88
2022/01/11 11:00:56;;;;;;;12.57;9.07;;;2.20;99.90;;;;;;5020217;28;20230;-86
2022/01/11 11:03:24;;;;;;;11.20;7.75;;;2.20;99.90;;;;;;5012410;28;20226;-86
2022/01/11 11:05:54;;;;;;;15.00;9.35;;;2.10;99.90;;;;;;5012766;28;20216;-87
2022/01/11 11:08:30;;;;;;;12.68;8.02;;;2.10;99.90;;;;;;5005294;28;20620;-86
2022/01/11 11:10:56;;;;;;;17.08;8.82;;;2.10;99.90;;;;;;5015699;28;20218;-87
2022/01/11 11:13:24;;;;;;;12.60;8.40;;;2.00;99.90;;;;;;5026820;28;20237;-86
2022/01/11 11:15:52;;;;;;;15.43;9.13;;;2.00;99.90;;;;;;4997070;28;20203;-86
2022/01/11 11:18:31;;;;;;;13.57;8.95;;;2.00;99.90;;;;;;4997084;28;20182;-88
2022/01/11 11:21:13;;;;;;;11.82;7.65;;;1.90;99.90;;;;;;5010093;28;20221;-86
2022/01/11 11:23:39;;;;;;;13.07;7.78;;;1.90;99.90;;;;;;5014903;28;20190;-86
2022/01/11 11:26:05;;;;;;;13.45;7.97;;;1.90;99.90;;;;;;5006400;28;20619;-87
2022/01/11 11:28:31;;;;;;;14.77;7.80;;;1.90;99.90;;;;;;5031929;28;20247;-86
2022/01/11 11:30:58;;;;;;;15.87;9.53;;;1.90;99.90;;;;;;4994602;28;20195;-86
2022/01/11 11:33:25;;;;;;;19.67;10.50;;;1.90;99.90;;;;;;5025975;28;20429;-88
2022/01/11 11:35:51;;;;;;;15.00;8.68;;;1.90;99.90;;;;;;5028831;28;20210;-86
2022/01/11 11:38:21;;;;;;;12.55;8.07;;;1.90;99.90;;;;;;5030395;28;20197;-88
2022/01/11 11:40:52;;;;;;;13.32;7.85;;;1.90;99.90;;;;;;5033552;28;20237;-88
2022/01/11 11:43:18;;;;;;;13.15;8.25;;;1.90;99.90;;;;;;5015940;28;20269;-89
2022/01/11 11:45:44;;;;;;;13.67;7.30;;;1.90;99.90;;;;;;5018914;28;20210;-89
2022/01/11 11:48:13;;;;;;;14.13;7.95;;;1.80;99.90;;;;;;5027783;28;20174;-88
2022/01/11 11:50:46;;;;;;;10.75;6.85;;;1.80;99.90;;;;;;5032034;28;20879;-89
2022/01/11 11:53:34;;;;;;;13.60;8.30;;;1.80;99.90;;;;;;5003554;28;20739;-88
2022/01/11 11:56:22;;;;;;;12.60;8.32;;;1.80;99.90;;;;;;5007988;28;20702;-86
2022/01/11 11:58:52;;;;;;;14.30;8.90;;;1.80;99.90;;;;;;5008952;28;20555;-86
2022/01/11 12:01:42;;;;;;;14.63;8.45;;;1.80;99.90;;;;;;5007309;28;20293;-89
2022/01/11 12:04:27;;;;;;;15.65;8.75;;;1.70;99.90;;;;;;5019894;28;20194;-89
2022/01/11 12:06:55;;;;;;;10.45;6.90;;;1.70;99.90;;;;;;5010704;28;20223;-86
2022/01/11 12:09:22;;;;;;;14.35;8.48;;;1.70;99.90;;;;;;4996777;28;20187;-88
2022/01/11 12:11:50;;;;;;;13.63;7.90;;;1.60;99.90;;;;;;5012614;28;20482;-87
2022/01/11 12:14:36;;;;;;;13.45;8.43;;;1.60;99.90;;;;;;5014879;28;20187;-87
2022/01/11 12:17:22;;;;;;;14.75;8.13;;;1.60;99.90;;;;;;5007122;28;20196;-87
2022/01/11 12:19:53;;;;;;;11.65;8.57;;;1.60;99.90;;;;;;5039816;28;20225;-86
2022/01/11 12:22:25;;;;;;;14.27;9.20;;;1.60;99.90;;;;;;5023230;28;20692;-88
2022/01/11 12:24:54;;;;;;;12.70;7.45;;;1.60;99.90;;;;;;5027359;28;20225;-86
2022/01/11 12:27:21;;;;;;;12.57;6.72;;;1.60;99.90;;;;;;5018247;28;20179;-90
2022/01/11 12:30:06;;;;;;;10.95;7.15;;;1.60;99.90;;;;;;5010760;28;20202;-87
2022/01/11 12:32:57;;;;;;;10.50;7.35;;;1.60;99.90;;;;;;5014039;28;20190;-87
2022/01/11 12:35:23;;;;;;;10.93;7.20;;;1.50;99.90;;;;;;5045354;28;20265;-88
2022/01/11 12:38:04;;;;;;;17.80;9.13;;;1.50;99.90;;;;;;5013971;28;20194;-86
2022/01/11 12:40:31;;;;;;;14.52;8.10;;;1.60;99.90;;;;;;5011718;28;20636;-88
2022/01/11 12:43:06;;;;;;;11.73;8.07;;;1.60;99.90;;;;;;5023373;28;20191;-87
2022/01/11 12:45:58;;;;;;;15.68;7.90;;;1.60;99.90;;;;;;5004548;28;20264;-87
2022/01/11 12:48:44;;;;;;;12.88;7.85;;;1.60;99.90;;;;;;5027479;28;20203;-88
2022/01/11 12:51:10;;;;;;;14.13;8.45;;;1.60;99.90;;;;;;5015307;28;20289;-88
2022/01/11 12:53:36;;;;;;;11.82;7.75;;;1.60;99.90;;;;;;5032568;28;20194;-88